Airport View

Enter AWOS ICAO identifier for current METAR.

ex. KFNL

KSBN 191754Z 25012KT 1 1/2SM -SN OVC024 M11/M14 A3023 RMK AO2 SLP253 P0000 60000 T11111139 11111 21144 51013 $

19 Jan 2020 18:41

Phone: 574-251-2652

Other Area AWOS: KEKM - KPPO - KMGC - KBEH

TAF KSBN 191731Z 1918/2018 26015G24KT 1 1/2SM -SHSN OVC025 FM191930 29015G25KT 1/2SM SHSN FZFG VV004 FM192100 31012KT 4SM -SHSN OVC020 FM200200 35006KT P6SM SCT025 OVC200 FM200900 03003KT P6SM BKN025